Time;durP1;ratioP1;P1;durP2;ratioP2;P2;SDS_P1;SDS_P2;PMS_P1;PMS_P2;Temp;Humidity;BMP_temperature;BMP_pressure;BME280_temperature;BME280_humidity;BME280_pressure;Samples;Min_cycle;Max_cycle;Signal;HPM_P1;HPM_P2
2022/01/28 00:00:18;;;;;;;;;;;;;;;10.62;37.42;102203.28;4988375;28;20053;-77
2022/01/28 00:02:56;;;;;;;2.85;1.27;;;;;;;10.59;37.27;102214.38;4985466;28;20347;-76
2022/01/28 00:05:25;;;;;;;3.47;1.20;;;;;;;10.57;37.56;102207.34;4992639;28;20073;-76
2022/01/28 00:07:57;;;;;;;2.92;1.48;;;;;;;10.51;37.57;102209.59;4993447;28;20050;-77
2022/01/28 00:10:27;;;;;;;2.00;1.60;;;;;;;10.47;36.81;102200.78;4993113;28;20046;-77
2022/01/28 00:13:20;;;;;;;2.88;1.17;;;;;;;10.38;36.86;102205.47;4994163;28;20101;-77
2022/01/28 00:16:19;;;;;;;3.77;1.47;;;;;;;10.25;37.79;102214.22;4993240;28;20130;-75
2022/01/28 00:19:08;;;;;;;2.63;1.25;;;;;;;10.12;38.96;102215.25;4979792;28;20284;-77
2022/01/28 00:38:14;;;;;;;2.08;1.10;;;;;;;9.41;38.71;102198.41;4974498;28;20571;-75
2022/01/28 00:40:44;;;;;;;2.17;1.10;;;;;;;9.30;39.56;102196.91;4986178;28;20057;-73
2022/01/28 00:43:13;;;;;;;1.65;1.00;;;;;;;9.07;39.47;102176.56;4993082;28;20097;-74
2022/01/28 00:45:41;;;;;;;1.77;1.00;;;;;;;9.07;40.20;102189.47;4993755;28;20523;-73
2022/01/28 00:48:10;;;;;;;2.03;0.80;;;;;;;8.99;40.02;102196.78;4991271;28;20129;-73
2022/01/28 00:50:41;;;;;;;1.98;1.05;;;;;;;8.89;41.18;102197.06;4974266;28;20058;-74
2022/01/28 00:53:10;;;;;;;1.70;0.90;;;;;;;8.76;41.55;102198.88;4984834;28;20073;-75
2022/01/28 00:55:39;;;;;;;2.42;1.40;;;;;;;8.67;40.37;102203.50;4979485;28;20551;-75
2022/01/28 00:58:09;;;;;;;2.55;1.10;;;;;;;8.59;41.30;102210.78;4982279;28;20043;-75
2022/01/28 01:00:38;;;;;;;2.47;1.00;;;;;;;8.52;40.66;102198.31;4988487;28;20058;-75
2022/01/28 01:03:06;;;;;;;2.17;0.90;;;;;;;8.39;41.51;102200.91;4981892;28;20054;-73
2022/01/28 01:05:35;;;;;;;1.98;1.10;;;;;;;8.29;41.57;102194.28;4991309;28;20524;-74
2022/01/28 01:08:04;;;;;;;1.02;0.80;;;;;;;8.18;42.04;102195.31;4990932;28;20578;-78
2022/01/28 01:10:33;;;;;;;2.28;1.50;;;;;;;8.05;42.34;102192.75;4991237;28;20081;-78
2022/01/28 01:13:02;;;;;;;1.50;1.15;;;;;;;7.95;42.80;102187.03;4991897;28;20065;-78
2022/01/28 01:15:36;;;;;;;1.63;0.90;;;;;;;7.87;42.57;102192.50;5009951;28;20151;-76
2022/01/28 01:18:11;;;;;;;2.55;0.90;;;;;;;7.76;43.21;102184.06;5011863;28;20065;-76
2022/01/28 01:20:58;;;;;;;1.58;1.02;;;;;;;7.65;43.75;102180.81;4999641;28;20045;-77
2022/01/28 01:23:30;;;;;;;2.22;1.13;;;;;;;7.56;44.01;102187.97;5011194;28;20064;-79
2022/01/28 01:26:07;;;;;;;3.23;1.57;;;;;;;7.48;43.66;102186.56;5012090;28;20049;-77
2022/01/28 01:28:38;;;;;;;2.00;1.10;;;;;;;7.38;44.06;102195.38;5010361;28;20054;-76
2022/01/28 01:31:17;;;;;;;1.65;1.05;;;;;;;7.30;45.03;102196.53;4991680;28;20436;-75
2022/01/28 01:33:51;;;;;;;2.42;1.38;;;;;;;7.21;44.17;102191.69;4993266;28;20058;-75
2022/01/28 01:36:20;;;;;;;3.72;1.88;;;;;;;7.14;44.22;102189.50;5010279;28;20162;-75
2022/01/28 01:38:48;;;;;;;2.55;1.63;;;;;;;7.06;44.69;102189.00;5011476;28;20078;-76
2022/01/28 01:41:25;;;;;;;2.75;1.40;;;;;;;7.00;45.37;102191.16;5011412;28;20092;-78
2022/01/28 01:43:59;;;;;;;3.08;1.95;;;;;;;6.95;45.28;102191.66;5011168;28;20050;-76
2022/01/28 01:46:42;;;;;;;2.83;1.95;;;;;;;6.88;44.86;102185.19;5009158;28;20149;-74
2022/01/28 01:52:05;;;;;;;3.05;1.83;;;;;;;6.76;45.78;102192.97;5010683;28;20091;-80
2022/01/28 01:54:38;;;;;;;3.15;1.70;;;;;;;6.69;45.67;102196.81;4999355;28;20097;-80
2022/01/28 01:57:07;;;;;;;3.25;1.50;;;;;;;6.62;46.58;102196.25;5010540;28;20053;-76
2022/01/28 01:59:36;;;;;;;4.15;1.60;;;;;;;6.56;46.23;102198.44;5014518;28;20073;-79
2022/01/28 02:02:07;;;;;;;3.90;1.50;;;;;;;6.48;46.92;102197.88;4995060;28;20488;-77
2022/01/28 02:04:36;;;;;;;2.67;1.48;;;;;;;6.40;47.58;102199.94;5000574;28;20046;-78
2022/01/28 02:07:06;;;;;;;2.58;1.30;;;;;;;6.32;47.64;102195.94;5011144;28;20058;-78
2022/01/28 02:09:34;;;;;;;3.53;1.40;;;;;;;6.26;47.31;102203.25;5006548;28;20566;-78
2022/01/28 02:12:03;;;;;;;2.80;1.52;;;;;;;6.21;47.69;102207.19;5006975;28;20116;-76
2022/01/28 02:14:32;;;;;;;3.00;1.48;;;;;;;6.14;48.69;102204.94;5009683;28;20096;-76
2022/01/28 02:17:01;;;;;;;2.95;1.48;;;;;;;6.12;47.72;102204.84;4997501;28;20081;-75
2022/01/28 02:19:31;;;;;;;3.30;1.83;;;;;;;6.09;47.54;102202.03;5010493;28;20045;-76
2022/01/28 02:22:01;;;;;;;5.20;1.73;;;;;;;6.05;47.90;102206.09;5011137;28;20446;-76
2022/01/28 02:24:35;;;;;;;3.88;1.65;;;;;;;6.01;47.45;102203.19;5010854;28;20466;-77
2022/01/28 02:27:03;;;;;;;3.40;1.73;;;;;;;5.97;47.42;102212.34;5010383;28;20085;-77
2022/01/28 02:29:35;;;;;;;2.13;1.50;;;;;;;5.96;47.94;102210.56;5010482;28;20566;-76
2022/01/28 02:32:06;;;;;;;3.40;1.73;;;;;;;5.92;48.04;102208.53;5010528;28;20132;-76
2022/01/28 02:34:36;;;;;;;3.22;1.70;;;;;;;5.89;48.04;102205.75;5010232;28;20554;-75
2022/01/28 02:37:06;;;;;;;4.28;1.60;;;;;;;5.87;47.99;102204.72;5010917;28;20143;-76
2022/01/28 02:39:35;;;;;;;3.33;1.70;;;;;;;5.85;48.07;102201.16;4996838;28;20054;-75
2022/01/28 02:42:13;;;;;;;2.75;1.73;;;;;;;5.82;48.11;102203.53;5010049;28;20046;-76
2022/01/28 02:44:47;;;;;;;3.28;1.83;;;;;;;5.78;48.34;102206.66;5010091;28;20041;-76
2022/01/28 02:47:18;;;;;;;4.18;1.52;;;;;;;5.77;48.71;102207.41;5010491;28;20057;-76
2022/01/28 02:49:47;;;;;;;2.75;1.10;;;;;;;5.75;48.14;102203.84;5007372;28;20493;-76
2022/01/28 02:52:29;;;;;;;3.40;1.65;;;;;;;5.75;48.49;102208.97;4999212;28;20140;-77
2022/01/28 02:54:59;;;;;;;2.95;1.50;;;;;;;5.72;48.30;102208.75;5009692;28;20058;-76
2022/01/28 02:57:27;;;;;;;2.53;1.35;;;;;;;5.70;48.79;102212.88;5001445;28;20046;-76
2022/01/28 02:59:56;;;;;;;3.03;1.63;;;;;;;5.64;48.39;102201.41;5006120;28;20046;-75
2022/01/28 03:02:25;;;;;;;3.67;1.48;;;;;;;5.61;48.79;102207.97;5009921;28;20062;-76
2022/01/28 03:05:08;;;;;;;3.15;1.50;;;;;;;5.58;49.28;102216.34;5009605;28;20077;-75
2022/01/28 03:07:38;;;;;;;2.97;1.40;;;;;;;5.56;48.34;102212.78;5010657;28;20058;-75
2022/01/28 03:10:30;;;;;;;2.85;1.38;;;;;;;5.53;48.28;102207.44;4997667;28;20048;-76
2022/01/28 03:13:16;;;;;;;3.10;2.10;;;;;;;5.46;49.21;102208.66;5009701;28;20049;-74
2022/01/28 03:15:51;;;;;;;4.22;1.90;;;;;;;5.47;48.07;102217.22;5010581;28;20136;-76
2022/01/28 03:18:23;;;;;;;3.72;1.92;;;;;;;5.45;49.03;102226.50;5009958;28;20089;-75
2022/01/28 03:21:06;;;;;;;3.42;1.85;;;;;;;5.43;49.13;102225.53;5010212;28;20057;-74
2022/01/28 03:23:38;;;;;;;3.95;1.90;;;;;;;5.40;49.57;102232.97;5009624;28;20101;-77
2022/01/28 03:26:20;;;;;;;3.28;1.77;;;;;;;5.39;48.82;102239.78;5000740;28;20055;-78
2022/01/28 03:28:49;;;;;;;2.77;1.53;;;;;;;5.39;48.56;102236.34;5008112;28;20050;-77
2022/01/28 03:31:17;;;;;;;3.17;1.77;;;;;;;5.37;49.72;102235.31;5010314;28;20344;-77
2022/01/28 03:33:46;;;;;;;3.83;1.98;;;;;;;5.34;49.12;102230.84;4995814;28;20101;-79
2022/01/28 03:36:14;;;;;;;5.15;1.90;;;;;;;5.33;50.25;102220.47;5009664;28;20076;-76
2022/01/28 03:38:47;;;;;;;3.85;2.03;;;;;;;5.28;49.41;102229.50;5010073;28;20054;-78
2022/01/28 03:41:17;;;;;;;3.25;1.83;;;;;;;5.24;49.18;102219.03;5009309;28;20046;-77
2022/01/28 03:43:45;;;;;;;3.88;1.88;;;;;;;5.24;49.85;102208.75;5009345;28;20080;-79
2022/01/28 03:46:14;;;;;;;6.63;1.90;;;;;;;5.24;49.27;102216.47;5008300;28;20133;-78
2022/01/28 03:48:43;;;;;;;3.60;1.83;;;;;;;5.25;49.62;102220.78;4997475;28;20104;-78
2022/01/28 03:51:11;;;;;;;3.45;1.70;;;;;;;5.25;49.35;102230.19;5010004;28;20042;-78
2022/01/28 03:53:40;;;;;;;3.33;1.80;;;;;;;5.24;49.32;102231.84;5011090;28;20069;-77
2022/01/28 03:56:10;;;;;;;4.43;2.10;;;;;;;5.22;49.68;102240.19;5010576;28;20108;-76
2022/01/28 03:58:38;;;;;;;2.72;1.40;;;;;;;5.23;49.36;102245.44;5014633;28;20078;-76
2022/01/28 04:01:14;;;;;;;3.05;1.95;;;;;;;5.20;50.16;102250.34;5016397;28;20081;-75
2022/01/28 04:03:49;;;;;;;3.78;2.05;;;;;;;5.17;49.96;102247.53;5014367;28;20486;-79
2022/01/28 04:11:57;;;;;;;3.03;1.75;;;;;;;5.09;49.80;102227.25;5013374;28;20149;-78
2022/01/28 04:14:38;;;;;;;3.67;1.60;;;;;;;5.07;50.93;102228.81;5013744;28;20096;-84
2022/01/28 04:17:22;;;;;;;4.30;2.20;;;;;;;5.02;51.24;102224.22;5001959;28;20050;-84
2022/01/28 04:19:52;;;;;;;3.63;1.90;;;;;;;4.97;51.46;102214.34;5012657;28;20056;-84
2022/01/28 04:22:21;;;;;;;6.35;2.15;;;;;;;4.93;51.21;102213.25;5001322;28;20068;-78
2022/01/28 04:24:51;;;;;;;3.97;2.20;;;;;;;4.92;51.32;102213.13;5013797;28;20054;-77
2022/01/28 04:27:21;;;;;;;4.03;2.20;;;;;;;4.88;51.43;102216.22;5013252;28;20053;-81
2022/01/28 04:29:49;;;;;;;3.58;1.95;;;;;;;4.88;51.93;102221.38;5013561;28;20053;-78
2022/01/28 04:32:19;;;;;;;7.55;2.63;;;;;;;4.82;51.44;102216.69;5012753;28;20479;-79
2022/01/28 04:34:48;;;;;;;4.45;2.00;;;;;;;4.81;51.10;102228.59;5012863;28;20052;-76
2022/01/28 04:37:26;;;;;;;5.07;2.50;;;;;;;4.79;51.81;102227.59;5012536;28;20518;-76
2022/01/28 04:40:00;;;;;;;5.10;2.28;;;;;;;4.75;51.57;102230.69;5013315;28;20068;-77
2022/01/28 04:42:48;;;;;;;2.58;1.52;;;;;;;4.75;51.49;102230.69;5010030;28;20072;-83
2022/01/28 04:45:23;;;;;;;3.83;1.88;;;;;;;4.73;51.08;102221.09;5004297;28;20062;-79
2022/01/28 04:48:03;;;;;;;2.92;1.70;;;;;;;4.72;51.72;102222.78;5013009;28;20309;-79
2022/01/28 04:50:40;;;;;;;7.80;2.28;;;;;;;4.69;51.90;102227.66;5013127;28;20050;-79
2022/01/28 04:53:31;;;;;;;4.53;2.33;;;;;;;4.67;50.98;102231.75;5011954;28;20145;-80
2022/01/28 04:58:58;;;;;;;3.80;2.30;;;;;;;4.66;51.79;102235.13;5000545;28;20050;-77
2022/01/28 05:02:04;;;;;;;3.78;1.88;;;;;;;4.65;51.79;102248.72;5013281;28;20050;-80
2022/01/28 05:04:50;;;;;;;6.07;2.75;;;;;;;4.65;51.48;102253.84;5004440;28;20503;-82
2022/01/28 05:16:23;;;;;;;4.57;1.85;;;;;;;4.57;51.17;102265.16;5012102;28;20122;-81
2022/01/28 05:24:52;;;;;;;4.10;2.08;;;;;;;4.57;51.85;102249.78;5012987;28;20061;-80
2022/01/28 05:27:19;;;;;;;3.38;1.77;;;;;;;4.54;51.57;102236.75;5011685;28;20633;-78
2022/01/28 05:29:48;;;;;;;3.50;1.70;;;;;;;4.56;52.88;102258.28;5012668;28;20061;-78
2022/01/28 05:32:18;;;;;;;3.25;1.80;;;;;;;4.53;51.82;102258.00;5008812;28;20525;-79
2022/01/28 05:34:47;;;;;;;4.53;2.45;;;;;;;4.48;52.44;102265.34;5002400;28;20049;-81
2022/01/28 05:37:15;;;;;;;4.13;2.33;;;;;;;4.44;52.85;102259.84;5012913;28;20042;-78
2022/01/28 05:39:43;;;;;;;4.00;1.92;;;;;;;4.42;52.18;102264.84;5014022;28;20049;-78
2022/01/28 05:42:12;;;;;;;6.05;2.38;;;;;;;4.43;52.00;102258.09;5013533;28;20133;-77
2022/01/28 05:44:40;;;;;;;3.55;1.77;;;;;;;4.41;52.81;102258.84;5012915;28;20041;-80
2022/01/28 05:47:14;;;;;;;3.58;2.15;;;;;;;4.41;52.32;102248.59;5012620;28;20050;-80
2022/01/28 05:49:45;;;;;;;4.35;1.63;;;;;;;4.39;52.04;102250.13;5012650;28;20137;-79
2022/01/28 05:52:13;;;;;;;5.10;2.38;;;;;;;4.38;52.41;102258.63;5011826;28;20045;-78
2022/01/28 05:54:42;;;;;;;4.63;2.00;;;;;;;4.39;52.67;102260.38;4998072;28;20564;-79
2022/01/28 05:57:10;;;;;;;4.22;2.13;;;;;;;4.40;52.36;102258.75;5012029;28;20058;-80
2022/01/28 05:59:39;;;;;;;4.60;1.98;;;;;;;4.37;53.17;102255.91;5014171;28;20131;-80
2022/01/28 06:02:07;;;;;;;4.00;2.22;;;;;;;4.36;52.78;102252.47;4997758;28;20104;-81
2022/01/28 06:04:37;;;;;;;6.45;2.63;;;;;;;4.35;52.57;102247.22;5001149;28;20082;-82
2022/01/28 06:07:07;;;;;;;3.92;1.83;;;;;;;4.32;53.54;102253.00;5008125;28;20049;-80
2022/01/28 06:09:36;;;;;;;7.65;2.58;;;;;;;4.32;52.69;102253.00;5011211;28;20096;-80
2022/01/28 06:12:04;;;;;;;6.72;1.92;;;;;;;4.34;52.10;102250.56;5011069;28;20054;-81
2022/01/28 06:14:33;;;;;;;5.18;2.45;;;;;;;4.34;51.87;102258.25;5010520;28;20049;-81
2022/01/28 06:17:01;;;;;;;3.25;1.90;;;;;;;4.34;52.18;102255.69;5010527;28;20456;-81
2022/01/28 06:19:30;;;;;;;5.45;2.00;;;;;;;4.33;52.87;102252.25;5010332;28;20050;-80
2022/01/28 06:21:59;;;;;;;4.82;1.80;;;;;;;4.33;52.98;102244.56;5009577;28;20077;-78
2022/01/28 06:24:29;;;;;;;4.45;1.83;;;;;;;4.34;52.81;102251.44;5010540;28;20054;-76
2022/01/28 06:26:57;;;;;;;4.85;2.28;;;;;;;4.36;52.61;102261.84;5011415;28;20057;-80
2022/01/28 06:29:26;;;;;;;5.30;2.13;;;;;;;4.36;51.94;102262.72;5005459;28;20042;-80
2022/01/28 06:31:54;;;;;;;4.82;2.30;;;;;;;4.35;52.89;102260.94;5002751;28;20499;-79
2022/01/28 06:34:23;;;;;;;4.72;1.95;;;;;;;4.33;52.31;102264.13;4996614;28;20112;-78
2022/01/28 06:36:51;;;;;;;4.70;2.05;;;;;;;4.31;53.24;102268.28;5010587;28;20061;-78
2022/01/28 06:39:20;;;;;;;4.40;2.03;;;;;;;4.29;52.85;102270.69;5011192;28;20519;-79
2022/01/28 06:41:50;;;;;;;5.82;2.65;;;;;;;4.27;52.86;102274.81;5010780;28;20104;-84
2022/01/28 06:44:19;;;;;;;2.92;1.92;;;;;;;4.27;52.58;102274.81;5011994;28;20046;-86
2022/01/28 06:46:47;;;;;;;3.78;1.92;;;;;;;4.28;52.95;102275.69;5011315;28;20116;-84
2022/01/28 06:49:15;;;;;;;4.32;2.10;;;;;;;4.25;52.84;102273.78;5011126;28;20053;-84
2022/01/28 06:51:44;;;;;;;4.40;2.13;;;;;;;4.24;53.68;102268.53;5010348;28;20053;-81
2022/01/28 06:54:12;;;;;;;3.65;1.83;;;;;;;4.23;53.46;102262.53;5010854;28;20065;-81
2022/01/28 06:56:41;;;;;;;4.18;2.38;;;;;;;4.24;52.60;102266.88;5010938;28;20451;-82
2022/01/28 06:59:11;;;;;;;5.50;1.90;;;;;;;4.23;52.44;102262.53;5011564;28;20088;-84
2022/01/28 07:01:40;;;;;;;4.30;2.30;;;;;;;4.21;53.26;102264.06;5013571;28;20046;-85
2022/01/28 07:04:08;;;;;;;4.40;2.22;;;;;;;4.11;54.01;102256.44;5010962;28;20508;-82
2022/01/28 07:06:36;;;;;;;4.68;2.00;;;;;;;4.18;52.24;102262.16;5010176;28;20081;-84
2022/01/28 07:09:06;;;;;;;3.97;2.63;;;;;;;4.19;53.20;102265.59;5010757;28;20045;-82
2022/01/28 07:11:35;;;;;;;4.97;2.10;;;;;;;4.07;53.48;102259.50;5010253;28;20046;-79
2022/01/28 07:14:03;;;;;;;5.40;2.55;;;;;;;4.18;53.06;102280.09;5010096;28;20448;-76
2022/01/28 07:16:35;;;;;;;6.22;2.22;;;;;;;4.19;53.35;102275.84;5009790;28;20222;-77
2022/01/28 07:19:03;;;;;;;4.15;2.13;;;;;;;4.17;53.75;102275.75;5010332;28;20077;-79
2022/01/28 07:21:32;;;;;;;5.35;2.60;;;;;;;4.17;53.16;102280.00;5010392;28;20058;-78
2022/01/28 07:24:01;;;;;;;4.53;2.20;;;;;;;4.15;52.01;102278.97;5010626;28;20054;-78
2022/01/28 07:26:29;;;;;;;4.70;2.33;;;;;;;4.10;53.53;102276.03;5010647;28;20571;-78
2022/01/28 07:28:58;;;;;;;4.18;1.83;;;;;;;4.09;54.16;102278.47;4993980;28;20133;-78
2022/01/28 07:31:26;;;;;;;5.80;2.33;;;;;;;4.06;53.04;102273.09;4999741;28;20047;-78
2022/01/28 07:33:56;;;;;;;4.70;2.38;;;;;;;4.06;52.93;102271.44;5012624;28;20049;-78
2022/01/28 07:36:25;;;;;;;5.63;2.95;;;;;;;4.05;53.07;102266.19;5015062;28;20547;-78
2022/01/28 07:38:53;;;;;;;5.72;2.70;;;;;;;4.05;54.25;102273.88;5001568;28;20108;-77
2022/01/28 07:41:21;;;;;;;4.07;2.00;;;;;;;3.94;53.43;102258.53;5006460;28;20109;-78
2022/01/28 07:43:50;;;;;;;5.75;2.35;;;;;;;4.03;53.12;102275.41;4996580;28;20389;-76
2022/01/28 07:46:18;;;;;;;4.53;2.20;;;;;;;4.01;53.31;102276.94;5014713;28;20050;-77
2022/01/28 07:48:47;;;;;;;4.50;2.08;;;;;;;4.02;52.77;102286.44;5002543;28;20117;-78
2022/01/28 07:51:17;;;;;;;4.30;2.15;;;;;;;4.02;53.37;102276.19;5015119;28;20128;-78
2022/01/28 07:53:46;;;;;;;5.25;2.22;;;;;;;4.01;53.11;102279.50;5015220;28;20081;-78
2022/01/28 07:56:15;;;;;;;5.03;2.25;;;;;;;3.96;54.49;102276.56;5014579;28;20054;-78
2022/01/28 07:58:43;;;;;;;6.28;2.72;;;;;;;3.93;53.75;102272.09;5015411;28;20074;-79
2022/01/28 08:01:12;;;;;;;6.55;2.22;;;;;;;3.91;54.20;102271.09;5015328;28;20069;-77
2022/01/28 08:03:40;;;;;;;5.75;2.70;;;;;;;3.90;54.00;102269.31;5004613;28;20053;-78
2022/01/28 08:06:09;;;;;;;4.70;1.95;;;;;;;3.89;54.23;102267.50;5000369;28;20105;-79
2022/01/28 08:08:39;;;;;;;5.70;2.28;;;;;;;3.89;54.97;102269.19;5014215;28;20054;-78
2022/01/28 08:11:07;;;;;;;7.35;2.35;;;;;;;3.87;54.59;102261.41;5013988;28;20092;-79
2022/01/28 08:13:36;;;;;;;3.78;2.00;;;;;;;3.87;53.40;102260.47;5013999;28;20096;-79
2022/01/28 08:16:05;;;;;;;6.07;2.58;;;;;;;3.87;54.84;102261.41;5001661;28;20058;-78
2022/01/28 08:18:33;;;;;;;6.50;2.65;;;;;;;3.86;54.59;102262.16;4992570;28;20105;-78
2022/01/28 08:21:01;;;;;;;5.82;2.60;;;;;;;3.84;54.78;102258.56;4994589;28;20054;-79
2022/01/28 08:23:30;;;;;;;5.10;2.45;;;;;;;3.81;53.78;102245.53;4976710;28;20105;-78
2022/01/28 08:26:00;;;;;;;6.47;2.20;;;;;;;3.82;54.65;102247.31;4974574;28;20101;-78
2022/01/28 08:28:29;;;;;;;5.80;2.33;;;;;;;3.80;54.68;102251.41;4991436;28;20051;-78
2022/01/28 08:30:57;;;;;;;5.95;2.65;;;;;;;3.82;54.54;102243.84;4985912;28;20078;-79
2022/01/28 08:33:25;;;;;;;6.03;2.50;;;;;;;3.84;55.14;102244.88;4989088;28;20082;-78
2022/01/28 08:35:55;;;;;;;5.03;2.35;;;;;;;3.84;55.28;102248.31;4975341;28;20074;-78
2022/01/28 08:38:31;;;;;;;5.18;2.42;;;;;;;3.82;54.75;102246.41;4974722;28;20465;-77
2022/01/28 08:41:01;;;;;;;4.35;2.05;;;;;;;3.81;55.39;102255.75;4993309;28;20049;-78
2022/01/28 08:43:30;;;;;;;6.38;2.50;;;;;;;3.80;55.71;102251.41;4993697;28;20108;-77
2022/01/28 08:45:58;;;;;;;4.20;2.15;;;;;;;3.74;55.58;102243.25;4990742;28;20058;-78
2022/01/28 08:48:27;;;;;;;5.68;2.72;;;;;;;3.80;54.48;102251.41;4974708;28;20067;-78
2022/01/28 08:50:55;;;;;;;5.78;2.20;;;;;;;3.80;54.43;102243.72;4989383;28;20050;-78
2022/01/28 08:53:24;;;;;;;6.03;2.35;;;;;;;3.79;55.22;102252.19;4986030;28;20101;-78
2022/01/28 08:55:53;;;;;;;4.07;2.20;;;;;;;3.77;55.29;102246.03;4988011;28;20074;-78
2022/01/28 08:58:23;;;;;;;4.90;2.17;;;;;;;3.74;55.43;102246.69;4993455;28;20082;-78
2022/01/28 09:00:52;;;;;;;6.15;2.70;;;;;;;3.74;55.65;102248.38;4982351;28;20130;-77
2022/01/28 09:03:21;;;;;;;4.97;2.25;;;;;;;3.70;54.93;102236.09;4989560;28;20055;-78
2022/01/28 09:05:50;;;;;;;5.13;2.40;;;;;;;3.70;55.34;102241.19;4984314;28;20389;-77
2022/01/28 09:08:19;;;;;;;5.65;2.13;;;;;;;3.71;55.12;102245.53;4991099;28;20085;-78
2022/01/28 09:10:57;;;;;;;6.20;2.72;;;;;;;3.70;55.16;102251.44;4982429;28;20089;-78
2022/01/28 09:13:37;;;;;;;5.13;2.13;;;;;;;3.69;55.67;102239.44;4973080;28;20062;-78
2022/01/28 09:16:06;;;;;;;8.02;2.25;;;;;;;3.69;54.88;102244.53;5002225;28;20523;-78
2022/01/28 09:18:35;;;;;;;4.45;2.10;;;;;;;3.67;54.62;102251.19;5012178;28;20569;-79
2022/01/28 09:21:03;;;;;;;9.43;2.28;;;;;;;3.66;55.63;102251.97;5012083;28;20050;-78
2022/01/28 09:23:32;;;;;;;5.53;2.58;;;;;;;3.63;55.33;102244.03;5008318;28;20058;-78
2022/01/28 09:26:00;;;;;;;6.13;2.97;;;;;;;3.63;55.69;102241.47;5003276;28;20049;-79
2022/01/28 09:28:30;;;;;;;6.10;2.90;;;;;;;3.63;55.67;102239.81;5012132;28;20206;-79
2022/01/28 09:30:59;;;;;;;6.13;2.47;;;;;;;3.62;55.86;102242.22;5003698;28;20168;-77
2022/01/28 09:33:28;;;;;;;5.60;2.55;;;;;;;3.55;55.11;102236.63;5007900;28;20558;-77
2022/01/28 09:35:56;;;;;;;4.50;2.20;;;;;;;3.52;55.94;102236.38;4994816;28;20100;-78
2022/01/28 09:38:24;;;;;;;5.10;2.45;;;;;;;3.52;56.59;102240.59;5007678;28;20483;-78
2022/01/28 09:40:55;;;;;;;5.47;2.60;;;;;;;3.53;55.92;102229.59;5007782;28;20046;-77
2022/01/28 09:43:25;;;;;;;6.32;3.10;;;;;;;3.54;57.04;102229.72;4993139;28;20058;-78
2022/01/28 09:45:56;;;;;;;4.30;2.10;;;;;;;3.52;56.31;102223.56;4992497;28;20046;-79
2022/01/28 09:48:24;;;;;;;5.70;2.53;;;;;;;3.53;56.95;102221.94;4992810;28;20062;-78
2022/01/28 09:50:53;;;;;;;9.95;2.92;;;;;;;3.52;56.17;102218.44;5010510;28;20049;-77
2022/01/28 09:53:21;;;;;;;8.00;2.53;;;;;;;3.54;56.00;102219.47;5002873;28;20081;-78
2022/01/28 09:55:50;;;;;;;6.22;2.53;;;;;;;3.53;56.07;102217.69;5007592;28;20045;-78
2022/01/28 09:58:18;;;;;;;3.80;1.90;;;;;;;3.53;56.58;102221.94;5004659;28;20042;-79
2022/01/28 10:00:47;;;;;;;4.90;2.25;;;;;;;3.51;56.21;102214.13;5006229;28;20378;-76
2022/01/28 10:03:18;;;;;;;6.32;2.70;;;;;;;3.50;56.30;102222.53;4999224;28;20046;-78
2022/01/28 10:05:50;;;;;;;7.07;3.17;;;;;;;3.50;57.18;102231.91;5010826;28;20531;-79
2022/01/28 10:08:20;;;;;;;5.70;2.38;;;;;;;3.47;57.08;102235.09;5010458;28;20550;-78
2022/01/28 10:11:02;;;;;;;7.07;2.58;;;;;;;3.46;56.73;102238.44;5008440;28;20484;-79
2022/01/28 10:13:36;;;;;;;6.13;2.85;;;;;;;3.47;56.83;102250.47;4990296;28;20046;-78
2022/01/28 10:16:08;;;;;;;8.68;2.97;;;;;;;3.46;56.96;102243.56;4990912;28;20058;-77
2022/01/28 10:18:42;;;;;;;7.78;3.03;;;;;;;3.47;55.96;102244.44;4994946;28;20502;-77
2022/01/28 10:21:27;;;;;;;5.55;2.25;;;;;;;3.48;57.04;102248.78;5010771;28;20111;-77
2022/01/28 10:24:05;;;;;;;4.63;2.65;;;;;;;3.48;56.90;102247.16;4990614;28;20101;-77
2022/01/28 10:26:35;;;;;;;6.82;2.53;;;;;;;3.48;56.81;102249.72;4991334;28;20058;-78
2022/01/28 10:29:06;;;;;;;6.90;2.55;;;;;;;3.46;56.02;102246.13;5006475;28;20052;-78
2022/01/28 10:31:40;;;;;;;4.40;2.20;;;;;;;3.48;57.49;102244.59;4996254;28;20073;-78
2022/01/28 10:34:15;;;;;;;6.03;2.13;;;;;;;3.48;57.09;102243.66;5002353;28;20626;-77
2022/01/28 10:36:46;;;;;;;5.57;2.33;;;;;;;3.48;56.71;102234.34;5004617;28;20053;-77
2022/01/28 10:39:20;;;;;;;5.18;2.40;;;;;;;3.47;57.10;102227.44;5003800;28;20496;-77
2022/01/28 10:41:57;;;;;;;6.38;2.47;;;;;;;3.49;57.45;102231.00;5003650;28;20084;-77
2022/01/28 10:44:27;;;;;;;5.68;2.53;;;;;;;3.48;55.92;102219.00;4997644;28;20046;-77
2022/01/28 10:47:01;;;;;;;4.88;2.00;;;;;;;3.47;57.13;102224.88;5009543;28;20053;-77
2022/01/28 10:49:34;;;;;;;4.35;2.35;;;;;;;3.47;55.84;102221.41;4990710;28;20051;-77
2022/01/28 10:52:13;;;;;;;4.50;1.65;;;;;;;3.46;56.66;102234.97;4990141;28;20062;-76
2022/01/28 10:54:42;;;;;;;7.03;2.47;;;;;;;3.45;56.39;102228.97;4997207;28;20045;-78
2022/01/28 10:57:11;;;;;;;3.58;2.10;;;;;;;3.44;57.56;102226.31;4997172;28;20186;-78
2022/01/28 10:59:41;;;;;;;6.10;2.55;;;;;;;3.43;56.59;102220.25;5009347;28;20049;-77
2022/01/28 11:02:10;;;;;;;5.15;2.40;;;;;;;3.43;56.96;102215.16;5010073;28;20125;-78
2022/01/28 11:04:41;;;;;;;4.95;2.47;;;;;;;3.43;57.63;102214.25;4996605;28;20046;-78
2022/01/28 11:07:11;;;;;;;5.78;2.28;;;;;;;3.42;57.83;102202.25;5013488;28;20092;-78
2022/01/28 11:09:42;;;;;;;5.57;2.15;;;;;;;3.43;56.99;102215.16;5011371;28;20105;-78
2022/01/28 11:12:11;;;;;;;5.40;2.20;;;;;;;3.42;57.84;102213.38;5002795;28;20513;-78
2022/01/28 11:14:39;;;;;;;10.13;2.40;;;;;;;3.41;56.58;102215.78;5011970;28;20171;-79
2022/01/28 11:17:10;;;;;;;6.35;2.70;;;;;;;3.41;56.21;102216.69;4993892;28;20515;-78
2022/01/28 11:19:41;;;;;;;4.88;2.25;;;;;;;3.41;56.63;102216.69;5007969;28;20409;-78
2022/01/28 11:22:39;;;;;;;4.25;1.92;;;;;;;3.40;56.66;102214.91;5006849;28;20050;-77
2022/01/28 11:25:36;;;;;;;4.60;2.00;;;;;;;3.41;57.21;102216.69;5010427;28;20133;-77
2022/01/28 11:28:12;;;;;;;5.35;2.03;;;;;;;3.40;56.67;102208.91;5000295;28;20053;-79
2022/01/28 11:30:48;;;;;;;5.53;3.03;;;;;;;3.38;58.27;102202.75;5003470;28;20241;-77
2022/01/28 11:33:17;;;;;;;5.13;2.58;;;;;;;3.37;57.59;102207.00;5006815;28;20503;-78
2022/01/28 11:36:03;;;;;;;7.05;2.58;;;;;;;3.38;57.47;102203.66;5013755;28;20095;-78
2022/01/28 11:38:52;;;;;;;5.10;2.10;;;;;;;3.39;57.42;102201.97;5012736;28;20128;-78
2022/01/28 11:41:28;;;;;;;3.75;2.15;;;;;;;3.38;56.56;102206.22;4998615;28;20058;-78
2022/01/28 11:43:57;;;;;;;9.38;3.05;;;;;;;3.39;57.96;102202.91;5006011;28;20050;-79
2022/01/28 11:46:30;;;;;;;7.22;2.85;;;;;;;3.39;57.63;102208.00;5012999;28;20057;-78
2022/01/28 11:49:25;;;;;;;5.63;2.33;;;;;;;3.39;57.21;102219.88;5013189;28;20495;-75
2022/01/28 11:51:55;;;;;;;4.63;2.55;;;;;;;3.35;57.38;102200.84;5013100;28;20129;-76
2022/01/28 11:54:39;;;;;;;6.93;2.63;;;;;;;3.39;57.97;102212.22;5002916;28;20050;-77
2022/01/28 11:57:16;;;;;;;6.35;2.30;;;;;;;3.39;57.68;102217.31;4997777;28;20050;-77
2022/01/28 11:59:46;;;;;;;4.95;2.00;;;;;;;3.25;57.36;102204.31;5012962;28;20111;-76
2022/01/28 12:02:17;;;;;;;5.78;1.92;;;;;;;3.38;57.06;102226.69;5012378;28;20053;-77
2022/01/28 12:04:46;;;;;;;2.97;1.50;;;;;;;3.39;57.49;102231.03;5002687;28;20054;-77
2022/01/28 12:07:19;;;;;;;5.78;1.95;;;;;;;3.37;56.62;102219.78;5011386;28;20058;-77
2022/01/28 12:09:50;;;;;;;5.32;2.50;;;;;;;3.36;57.32;102212.84;5014086;28;20491;-77
2022/01/28 12:12:37;;;;;;;4.78;2.40;;;;;;;3.35;57.60;102204.28;5012555;28;20094;-76
2022/01/28 12:15:12;;;;;;;4.35;2.05;;;;;;;3.35;56.77;102211.09;5005948;28;20500;-77
2022/01/28 12:17:42;;;;;;;4.70;2.20;;;;;;;3.32;58.79;102214.28;5005387;28;20042;-77
2022/01/28 12:20:38;;;;;;;4.97;2.50;;;;;;;3.31;58.24;102203.91;5012145;28;20137;-77
2022/01/28 12:23:30;;;;;;;5.38;2.40;;;;;;;3.31;56.95;102209.03;4992307;28;20174;-77
2022/01/28 12:26:00;;;;;;;4.90;2.30;;;;;;;3.30;58.22;102212.38;4992588;28;20065;-76
2022/01/28 12:28:48;;;;;;;6.03;2.30;;;;;;;3.31;57.41;102209.03;4992915;28;20054;-77
2022/01/28 12:31:21;;;;;;;5.43;2.72;;;;;;;3.31;58.38;102215.03;4996507;28;20136;-78
2022/01/28 12:33:52;;;;;;;4.55;2.20;;;;;;;3.31;57.20;102203.91;5000962;28;20046;-77
2022/01/28 12:36:22;;;;;;;5.35;2.33;;;;;;;3.30;58.09;102212.38;5009039;28;20097;-76
2022/01/28 12:39:06;;;;;;;4.85;2.30;;;;;;;3.29;58.50;102213.13;5011613;28;20049;-77